createdAt,value
2018-09-24T00:00:57.851Z,92.90
2018-09-24T00:03:26.021Z,92.90
2018-09-24T00:05:54.183Z,93.00
2018-09-24T00:08:22.349Z,93.10
2018-09-24T00:10:50.503Z,93.20
2018-09-24T00:13:18.657Z,93.30
2018-09-24T00:15:46.824Z,93.40
2018-09-24T00:18:14.987Z,93.30
2018-09-24T00:20:43.153Z,93.30
2018-09-24T00:23:11.302Z,93.50
2018-09-24T00:25:39.462Z,93.50
2018-09-24T00:28:07.621Z,93.50
2018-09-24T00:30:35.767Z,93.50
2018-09-24T00:33:03.907Z,93.50
2018-09-24T00:35:32.061Z,93.60
2018-09-24T00:38:00.211Z,93.70
2018-09-24T00:40:28.374Z,93.70
2018-09-24T00:42:56.518Z,93.80
2018-09-24T00:45:24.666Z,93.90
2018-09-24T00:47:52.824Z,93.90
2018-09-24T00:50:20.995Z,93.90
2018-09-24T00:52:49.123Z,93.90
2018-09-24T00:55:17.283Z,94.00
2018-09-24T00:57:45.434Z,94.10
2018-09-24T01:00:13.603Z,94.00
2018-09-24T01:02:41.750Z,93.90
2018-09-24T01:05:09.923Z,94.00
2018-09-24T01:07:38.071Z,94.00
2018-09-24T01:10:07.396Z,94.10
2018-09-24T01:12:35.542Z,94.00
2018-09-24T01:15:03.715Z,94.10
2018-09-24T01:17:31.871Z,94.10
2018-09-24T01:20:00.060Z,94.00
2018-09-24T01:22:28.210Z,94.10
2018-09-24T01:24:56.348Z,94.20
2018-09-24T01:27:24.479Z,94.10
2018-09-24T01:29:52.609Z,94.20
2018-09-24T01:32:20.719Z,94.20
2018-09-24T01:34:48.887Z,94.30
2018-09-24T01:37:17.016Z,94.20
2018-09-24T01:39:45.183Z,94.10
2018-09-24T01:42:13.339Z,94.00
2018-09-24T01:44:41.590Z,94.10
2018-09-24T01:47:09.740Z,94.10
2018-09-24T01:49:37.860Z,94.20
2018-09-24T01:52:06.011Z,94.20
2018-09-24T01:54:34.155Z,94.10
2018-09-24T01:57:02.332Z,94.30
2018-09-24T01:59:30.475Z,94.70
2018-09-24T02:01:58.624Z,94.30
2018-09-24T02:04:26.763Z,94.30
2018-09-24T02:07:00.314Z,94.30
2018-09-24T02:09:28.924Z,94.40
2018-09-24T02:12:02.908Z,94.40
2018-09-24T02:14:31.050Z,94.40
2018-09-24T02:16:59.215Z,94.30
2018-09-24T02:19:27.355Z,94.30
2018-09-24T02:21:55.497Z,94.10
2018-09-24T02:24:23.714Z,93.70
2018-09-24T02:26:51.868Z,93.60
2018-09-24T02:29:20.017Z,93.70
2018-09-24T02:31:48.212Z,93.70
2018-09-24T02:34:16.357Z,93.70
2018-09-24T02:36:44.500Z,94.10
2018-09-24T02:39:12.748Z,93.70
2018-09-24T02:41:41.231Z,93.40
2018-09-24T02:44:09.702Z,93.90
2018-09-24T02:46:43.719Z,93.50
2018-09-24T02:49:11.864Z,93.40
2018-09-24T02:51:40.032Z,93.50
2018-09-24T02:54:17.267Z,93.50
2018-09-24T02:56:49.727Z,93.50
2018-09-24T02:59:18.267Z,93.30
2018-09-24T03:01:46.396Z,93.30
2018-09-24T03:04:14.557Z,93.40
2018-09-24T03:06:42.708Z,93.40
2018-09-24T03:09:12.653Z,93.80
2018-09-24T03:11:41.233Z,93.60
2018-09-24T03:14:09.357Z,93.60
2018-09-24T03:16:37.688Z,93.50
2018-09-24T03:19:06.043Z,93.50
2018-09-24T03:21:34.210Z,93.50
2018-09-24T03:24:02.396Z,93.60
2018-09-24T03:26:30.547Z,93.80
2018-09-24T03:28:58.721Z,93.80
2018-09-24T03:31:26.843Z,93.80
2018-09-24T03:33:54.995Z,93.90
2018-09-24T03:36:23.123Z,93.80
2018-09-24T03:38:51.291Z,93.90
2018-09-24T03:41:19.439Z,93.90
2018-09-24T03:43:47.631Z,94.00
2018-09-24T03:46:15.773Z,94.00
2018-09-24T03:48:43.927Z,93.90
2018-09-24T03:51:12.087Z,93.90
2018-09-24T03:53:40.231Z,94.00
2018-09-24T03:56:08.412Z,94.10
2018-09-24T03:58:36.544Z,94.20
2018-09-24T04:01:04.729Z,94.40
2018-09-24T04:03:32.865Z,94.40
2018-09-24T04:06:06.617Z,94.40
2018-09-24T04:08:40.303Z,94.30
2018-09-24T04:11:14.052Z,94.30
2018-09-24T04:13:47.723Z,94.20
2018-09-24T04:16:21.417Z,94.20
2018-09-24T04:18:54.998Z,94.10
2018-09-24T04:21:28.559Z,94.00
2018-09-24T04:24:02.096Z,94.00
2018-09-24T04:26:35.663Z,94.10
2018-09-24T04:29:09.163Z,94.20
2018-09-24T04:31:42.643Z,94.40
2018-09-24T04:34:16.212Z,94.40
2018-09-24T04:36:49.840Z,94.40
2018-09-24T04:39:24.012Z,94.50
2018-09-24T04:41:57.567Z,94.20
2018-09-24T04:44:30.963Z,94.20
2018-09-24T04:47:04.492Z,94.20
2018-09-24T04:49:38.152Z,94.20
2018-09-24T04:52:11.751Z,94.30
2018-09-24T04:54:45.309Z,94.30
2018-09-24T04:57:18.838Z,94.50
2018-09-24T04:59:52.481Z,94.30
2018-09-24T05:02:26.031Z,94.30
2018-09-24T05:04:59.669Z,94.40
2018-09-24T05:07:33.456Z,94.40
2018-09-24T05:10:07.162Z,94.60
2018-09-24T05:12:40.844Z,94.50
2018-09-24T05:15:14.305Z,94.50
2018-09-24T05:17:47.959Z,94.40
2018-09-24T05:20:21.479Z,94.50
2018-09-24T05:22:55.049Z,94.40
2018-09-24T05:25:28.623Z,94.50
2018-09-24T05:28:02.328Z,94.50
2018-09-24T05:30:35.851Z,94.40
2018-09-24T05:33:09.542Z,94.40
2018-09-24T05:35:43.127Z,94.30
2018-09-24T05:38:16.815Z,94.50
2018-09-24T05:40:50.191Z,94.30
2018-09-24T05:43:23.787Z,94.40
2018-09-24T05:45:57.291Z,94.30
2018-09-24T05:48:30.829Z,94.40
2018-09-24T05:51:04.284Z,94.60
2018-09-24T05:53:37.856Z,94.70
2018-09-24T05:56:11.543Z,94.70
2018-09-24T05:58:44.944Z,94.60
2018-09-24T06:01:18.588Z,94.60
2018-09-24T06:03:52.126Z,94.40
2018-09-24T06:06:25.828Z,94.20
2018-09-24T06:08:59.487Z,94.20
2018-09-24T06:11:33.156Z,94.20
2018-09-24T06:14:06.775Z,94.20
2018-09-24T06:16:40.267Z,94.20
2018-09-24T06:19:13.836Z,94.00
2018-09-24T06:21:47.268Z,93.70
2018-09-24T06:24:20.976Z,93.30
2018-09-24T06:26:54.395Z,92.80
2018-09-24T06:29:28.148Z,92.60
2018-09-24T06:32:01.733Z,92.40
2018-09-24T06:34:35.360Z,92.30
2018-09-24T06:37:08.932Z,92.10
2018-09-24T06:39:42.689Z,91.80
2018-09-24T06:42:16.202Z,91.80
2018-09-24T06:44:49.903Z,91.80
2018-09-24T06:47:23.428Z,91.60
2018-09-24T06:49:56.872Z,91.50
2018-09-24T06:52:30.377Z,91.00
2018-09-24T06:55:03.694Z,90.90
2018-09-24T06:57:37.065Z,90.80
2018-09-24T07:00:11.448Z,90.60
2018-09-24T07:02:44.996Z,90.40
2018-09-24T07:05:18.660Z,90.20
2018-09-24T07:07:52.232Z,90.00
2018-09-24T07:10:25.783Z,89.60
2018-09-24T07:12:59.456Z,89.50
2018-09-24T07:15:32.987Z,89.30
2018-09-24T07:18:06.566Z,87.20
2018-09-24T07:20:40.149Z,87.00
2018-09-24T07:23:13.860Z,85.70
2018-09-24T07:25:47.446Z,85.10
2018-09-24T07:28:20.920Z,85.00
2018-09-24T07:30:54.347Z,83.00
2018-09-24T07:33:28.072Z,83.90
2018-09-24T07:36:01.444Z,83.80
2018-09-24T07:38:35.084Z,84.10
2018-09-24T07:41:08.784Z,83.40
2018-09-24T07:43:42.338Z,83.30
2018-09-24T07:46:15.936Z,82.60
2018-09-24T07:48:49.548Z,82.50
2018-09-24T07:51:23.231Z,81.80
2018-09-24T07:53:56.851Z,82.00
2018-09-24T07:56:30.354Z,81.30
2018-09-24T07:59:04.091Z,82.00
2018-09-24T08:01:37.647Z,82.10
2018-09-24T08:04:11.581Z,81.30
2018-09-24T08:06:45.077Z,81.60
2018-09-24T08:09:18.788Z,81.30
2018-09-24T08:11:52.298Z,81.50
2018-09-24T08:14:26.004Z,81.00
2018-09-24T08:16:59.579Z,80.10
2018-09-24T08:19:33.284Z,79.90
2018-09-24T08:22:06.824Z,79.90
2018-09-24T08:24:40.577Z,79.00
2018-09-24T08:27:14.243Z,77.70
2018-09-24T08:29:47.972Z,78.50
2018-09-24T08:32:21.599Z,76.20
2018-09-24T08:34:55.099Z,76.90
2018-09-24T08:37:28.728Z,76.80
2018-09-24T08:40:02.226Z,77.80
2018-09-24T08:42:35.812Z,78.10
2018-09-24T08:45:09.459Z,77.70
2018-09-24T08:47:43.128Z,77.20
2018-09-24T08:50:16.614Z,77.40
2018-09-24T08:52:50.223Z,75.80
2018-09-24T08:55:23.804Z,75.90
2018-09-24T08:57:57.638Z,73.80
2018-09-24T09:00:31.196Z,73.60
2018-09-24T09:03:04.561Z,73.80
2018-09-24T09:05:38.054Z,73.90
2018-09-24T09:08:11.866Z,75.10
2018-09-24T09:10:45.353Z,75.40
2018-09-24T09:13:19.121Z,74.30
2018-09-24T09:15:52.742Z,74.10
2018-09-24T09:18:27.016Z,74.80
2018-09-24T09:21:00.723Z,72.50
2018-09-24T09:23:34.451Z,72.00
2018-09-24T09:26:08.132Z,71.00
2018-09-24T09:28:41.664Z,71.00
2018-09-24T09:31:15.260Z,71.70
2018-09-24T09:33:48.853Z,70.30
2018-09-24T09:36:22.575Z,70.70
2018-09-24T09:38:56.079Z,70.00
2018-09-24T09:41:29.761Z,71.50
2018-09-24T09:44:03.359Z,66.40
2018-09-24T09:46:36.916Z,67.20
2018-09-24T09:49:10.565Z,66.30
2018-09-24T09:51:44.202Z,66.10
2018-09-24T09:54:17.908Z,66.40
2018-09-24T09:56:51.644Z,60.60
2018-09-24T09:59:25.122Z,60.10
2018-09-24T10:01:58.584Z,61.80
2018-09-24T10:04:32.028Z,63.70
2018-09-24T10:07:05.615Z,62.50
2018-09-24T10:09:39.374Z,59.20
2018-09-24T10:12:13.020Z,59.90
2018-09-24T10:14:46.721Z,59.60
2018-09-24T10:17:20.468Z,59.40
2018-09-24T10:19:53.937Z,58.70
2018-09-24T10:22:27.415Z,59.30
2018-09-24T10:25:01.063Z,58.20
2018-09-24T10:27:34.820Z,58.70
2018-09-24T10:30:08.370Z,58.80
2018-09-24T10:32:41.738Z,61.00
2018-09-24T10:35:15.332Z,59.80
2018-09-24T10:37:49.095Z,60.10
2018-09-24T10:40:22.628Z,61.50
2018-09-24T10:42:56.336Z,61.70
2018-09-24T10:45:29.828Z,62.10
2018-09-24T10:48:03.539Z,62.80
2018-09-24T10:50:37.132Z,63.30
2018-09-24T10:53:10.762Z,62.60
2018-09-24T10:55:44.363Z,63.60
2018-09-24T10:58:17.946Z,64.60
2018-09-24T11:00:51.419Z,66.00
2018-09-24T11:03:25.056Z,68.00
2018-09-24T11:05:58.725Z,68.30
2018-09-24T11:08:32.363Z,68.00
2018-09-24T11:11:05.988Z,67.90
2018-09-24T11:13:39.654Z,66.60
2018-09-24T11:16:13.624Z,66.40
2018-09-24T11:18:47.069Z,66.40
2018-09-24T11:21:20.758Z,66.70
2018-09-24T11:23:54.113Z,65.60
2018-09-24T11:29:01.433Z,66.20
2018-09-24T11:31:35.099Z,67.00
2018-09-24T11:34:08.788Z,66.10
2018-09-24T11:36:42.224Z,67.00
2018-09-24T11:39:15.703Z,63.70
2018-09-24T11:41:49.116Z,63.70
2018-09-24T11:44:22.868Z,60.90
2018-09-24T11:46:56.346Z,59.30
2018-09-24T11:49:29.996Z,58.70
2018-09-24T11:52:03.489Z,57.10
2018-09-24T11:54:37.004Z,55.90
2018-09-24T11:57:10.459Z,55.60
2018-09-24T11:59:44.128Z,56.00
2018-09-24T12:02:17.847Z,55.40
2018-09-24T12:04:51.255Z,54.40
2018-09-24T12:07:24.763Z,52.00
2018-09-24T12:09:58.475Z,53.00
2018-09-24T12:12:32.028Z,52.90
2018-09-24T12:15:05.688Z,53.80
2018-09-24T12:17:39.273Z,54.00
2018-09-24T12:20:12.876Z,53.80
2018-09-24T12:22:46.624Z,53.10
2018-09-24T12:25:20.308Z,52.30
2018-09-24T12:27:53.976Z,52.60
2018-09-24T12:30:27.468Z,53.00
2018-09-24T12:33:01.192Z,53.00
2018-09-24T12:35:34.724Z,54.30
2018-09-24T12:38:08.513Z,55.50
2018-09-24T12:40:42.045Z,57.50
2018-09-24T12:43:15.800Z,61.00
2018-09-24T12:45:49.502Z,62.30
2018-09-24T12:48:23.068Z,62.90
2018-09-24T12:50:56.726Z,62.80
2018-09-24T12:53:30.582Z,62.70
2018-09-24T12:56:04.035Z,64.10
2018-09-24T12:58:37.685Z,62.60
2018-09-24T13:01:11.240Z,62.60
2018-09-24T13:03:44.763Z,64.40
2018-09-24T13:06:18.252Z,63.50
2018-09-24T13:08:51.913Z,63.60
2018-09-24T13:11:25.494Z,61.80
2018-09-24T13:13:59.048Z,59.70
2018-09-24T13:16:32.708Z,59.10
2018-09-24T13:19:06.412Z,59.80
2018-09-24T13:21:40.028Z,60.90
2018-09-24T13:24:13.463Z,60.50
2018-09-24T13:26:46.935Z,59.90
2018-09-24T13:29:20.623Z,58.80
2018-09-24T13:31:54.309Z,57.50
2018-09-24T13:34:28.052Z,58.60
2018-09-24T13:37:01.779Z,56.50
2018-09-24T13:39:35.156Z,55.90
2018-09-24T13:42:08.563Z,53.60
2018-09-24T13:44:41.980Z,54.50
2018-09-24T13:47:15.495Z,55.60
2018-09-24T13:49:49.032Z,55.20
2018-09-24T13:52:22.516Z,53.20
2018-09-24T13:54:55.957Z,52.30
2018-09-24T13:57:29.357Z,51.20
2018-09-24T14:00:02.900Z,50.10
2018-09-24T14:02:36.447Z,51.10
2018-09-24T14:05:10.108Z,52.30
2018-09-24T14:07:43.816Z,54.10
2018-09-24T14:10:17.424Z,56.20
2018-09-24T14:12:51.059Z,57.40
2018-09-24T14:15:24.535Z,58.40
2018-09-24T14:17:58.237Z,60.00
2018-09-24T14:20:31.803Z,61.50
2018-09-24T14:23:05.233Z,62.80
2018-09-24T14:25:38.842Z,62.60
2018-09-24T14:28:12.691Z,63.50
2018-09-24T14:30:46.188Z,63.30
2018-09-24T14:33:19.692Z,62.80
2018-09-24T14:35:53.228Z,63.40
2018-09-24T14:38:26.755Z,62.80
2018-09-24T14:41:00.288Z,62.70
2018-09-24T14:43:33.948Z,61.60
2018-09-24T14:46:07.431Z,59.90
2018-09-24T14:48:40.989Z,59.50
2018-09-24T14:51:14.554Z,58.90
2018-09-24T14:53:48.124Z,58.20
2018-09-24T14:56:21.836Z,57.70
2018-09-24T14:58:55.228Z,57.30
2018-09-24T15:01:28.709Z,57.00
2018-09-24T15:04:02.704Z,57.10
2018-09-24T15:06:36.188Z,56.80
2018-09-24T15:09:11.293Z,56.90
2018-09-24T15:11:44.750Z,57.20
2018-09-24T15:14:18.583Z,55.50
2018-09-24T15:16:52.241Z,54.40
2018-09-24T15:19:25.771Z,55.30
2018-09-24T15:21:59.355Z,56.20
2018-09-24T15:24:32.719Z,55.70
2018-09-24T15:27:06.488Z,55.60
2018-09-24T15:29:40.160Z,53.60
2018-09-24T15:32:13.718Z,53.70
2018-09-24T15:34:47.174Z,54.20
2018-09-24T15:37:20.700Z,54.70
2018-09-24T15:39:54.160Z,55.20
2018-09-24T15:42:27.661Z,55.70
2018-09-24T15:45:01.440Z,56.00
2018-09-24T15:47:34.999Z,56.70
2018-09-24T15:50:08.664Z,57.20
2018-09-24T15:52:42.335Z,57.90
2018-09-24T15:55:15.840Z,58.60
2018-09-24T15:57:49.602Z,59.20
2018-09-24T16:00:23.321Z,59.60
2018-09-24T16:02:56.748Z,59.90
2018-09-24T16:05:30.363Z,60.00
2018-09-24T16:08:03.904Z,60.10
2018-09-24T16:10:37.676Z,60.50
2018-09-24T16:13:18.281Z,60.90
2018-09-24T16:15:51.893Z,61.50
2018-09-24T16:18:25.709Z,62.50
2018-09-24T16:20:59.383Z,62.90
2018-09-24T16:23:32.884Z,64.50
2018-09-24T16:26:06.529Z,63.80
2018-09-24T16:28:40.123Z,63.80
2018-09-24T16:31:13.547Z,63.10
2018-09-24T16:33:47.252Z,63.40
2018-09-24T16:36:20.951Z,63.10
2018-09-24T16:38:54.528Z,61.80
2018-09-24T16:41:28.041Z,62.30
2018-09-24T16:44:01.802Z,62.00
2018-09-24T16:46:35.460Z,62.10
2018-09-24T16:49:08.960Z,62.70
2018-09-24T16:51:42.502Z,62.80
2018-09-24T16:54:16.183Z,62.40
2018-09-24T16:56:49.884Z,62.70
2018-09-24T16:59:23.420Z,62.70
2018-09-24T17:01:57.172Z,63.30
2018-09-24T17:04:30.880Z,64.20
2018-09-24T17:07:04.373Z,64.90
2018-09-24T17:09:38.144Z,65.40
2018-09-24T17:12:12.191Z,66.20
2018-09-24T17:14:45.720Z,67.20
2018-09-24T17:17:19.376Z,68.00
2018-09-24T17:19:52.976Z,68.50
2018-09-24T17:22:26.579Z,69.00
2018-09-24T17:25:00.108Z,69.70
2018-09-24T17:27:33.652Z,70.20
2018-09-24T17:30:07.260Z,70.40
2018-09-24T17:32:40.999Z,70.70
2018-09-24T17:35:14.831Z,70.90
2018-09-24T17:37:48.240Z,71.20
2018-09-24T17:40:21.949Z,71.50
2018-09-24T17:42:55.500Z,71.90
2018-09-24T17:45:29.148Z,72.20
2018-09-24T17:48:02.800Z,72.60
2018-09-24T17:50:36.270Z,73.20
2018-09-24T17:53:09.999Z,73.20
2018-09-24T17:55:46.024Z,73.50
2018-09-24T17:58:19.501Z,73.50
2018-09-24T18:00:53.204Z,73.80
2018-09-24T18:03:26.671Z,74.10
2018-09-24T18:06:00.322Z,74.30
2018-09-24T18:08:33.904Z,74.70
2018-09-24T18:11:07.495Z,74.70
2018-09-24T18:13:41.088Z,75.20
2018-09-24T18:16:14.644Z,75.70
2018-09-24T18:18:48.256Z,75.90
2018-09-24T18:21:21.850Z,76.00
2018-09-24T18:23:55.371Z,76.40
2018-09-24T18:26:29.090Z,77.10
2018-09-24T18:29:02.922Z,77.10
2018-09-24T18:31:36.954Z,77.50
2018-09-24T18:34:10.891Z,77.30
2018-09-24T18:36:44.796Z,77.50
2018-09-24T18:39:18.500Z,77.90
2018-09-24T18:44:43.893Z,78.00
2018-09-24T18:47:17.577Z,79.00
2018-09-24T18:49:51.103Z,78.70
2018-09-24T18:52:24.606Z,78.50
2018-09-24T18:54:58.394Z,78.60
2018-09-24T18:57:32.042Z,78.50
2018-09-24T19:00:05.591Z,79.50
2018-09-24T19:02:39.197Z,79.10
2018-09-24T19:05:12.938Z,79.10
2018-09-24T19:07:46.498Z,79.10
2018-09-24T19:10:20.014Z,79.60
2018-09-24T19:12:53.737Z,79.80
2018-09-24T19:15:27.341Z,80.20
2018-09-24T19:18:01.066Z,81.00
2018-09-24T19:20:34.662Z,81.20
2018-09-24T19:23:08.186Z,81.30
2018-09-24T19:25:41.879Z,81.10
2018-09-24T19:28:15.643Z,81.60
2018-09-24T19:30:49.485Z,81.90
2018-09-24T19:33:23.200Z,82.00
2018-09-24T19:35:56.808Z,82.10
2018-09-24T19:38:30.301Z,82.50
2018-09-24T19:41:03.915Z,82.40
2018-09-24T19:43:37.518Z,83.00
2018-09-24T19:46:11.138Z,83.30
2018-09-24T19:48:44.726Z,84.40
2018-09-24T19:51:18.367Z,84.00
2018-09-24T19:53:51.979Z,83.90
2018-09-24T19:56:25.621Z,84.60
2018-09-24T19:58:59.116Z,85.00
2018-09-24T20:01:32.632Z,85.00
2018-09-24T20:04:06.266Z,85.40
2018-09-24T20:06:39.869Z,85.70
2018-09-24T20:09:14.082Z,85.40
2018-09-24T20:15:01.548Z,86.40
2018-09-24T20:17:35.242Z,86.70
2018-09-24T20:20:08.870Z,86.40
2018-09-24T20:22:42.274Z,86.20
2018-09-24T20:25:15.886Z,86.10
2018-09-24T20:27:49.546Z,86.30
2018-09-24T20:30:23.141Z,85.60
2018-09-24T20:32:56.585Z,85.50
2018-09-24T20:35:30.094Z,85.70
2018-09-24T20:38:03.854Z,86.00
2018-09-24T20:40:37.529Z,85.80
2018-09-24T20:43:11.330Z,85.80
2018-09-24T20:45:45.002Z,85.90
2018-09-24T20:48:18.489Z,85.90
2018-09-24T20:50:52.025Z,86.20
2018-09-24T20:53:25.673Z,86.40
2018-09-24T20:56:00.419Z,86.80
2018-09-24T20:58:34.062Z,86.90
2018-09-24T21:01:07.645Z,87.30
2018-09-24T21:03:41.116Z,87.60
2018-09-24T21:06:14.583Z,88.10
2018-09-24T21:08:47.914Z,88.20
2018-09-24T21:11:21.548Z,88.40
2018-09-24T21:13:55.214Z,88.60
2018-09-24T21:16:28.875Z,88.50
2018-09-24T21:19:02.466Z,88.60
2018-09-24T21:21:36.042Z,88.30
2018-09-24T21:24:09.781Z,88.00
2018-09-24T21:26:43.194Z,87.90
2018-09-24T21:29:16.619Z,87.80
2018-09-24T21:31:50.146Z,87.90
2018-09-24T21:34:23.725Z,87.80
2018-09-24T21:36:57.486Z,87.20
2018-09-24T21:39:31.130Z,87.60
2018-09-24T21:42:04.686Z,87.40
2018-09-24T21:44:38.383Z,87.30
2018-09-24T21:47:11.994Z,87.20
2018-09-24T21:49:45.545Z,86.80
2018-09-24T21:52:19.215Z,86.60
2018-09-24T21:54:52.694Z,86.70
2018-09-24T21:57:26.255Z,86.60
2018-09-24T21:59:59.957Z,86.50
2018-09-24T22:02:33.425Z,86.50
2018-09-24T22:05:06.807Z,86.80
2018-09-24T22:07:40.477Z,86.80
2018-09-24T22:10:13.982Z,86.50
2018-09-24T22:12:47.642Z,86.70
2018-09-24T22:15:21.232Z,87.10
2018-09-24T22:17:54.638Z,87.00
2018-09-24T22:20:28.118Z,86.90
2018-09-24T22:23:01.499Z,86.90
2018-09-24T22:25:35.169Z,87.20
2018-09-24T22:28:08.694Z,87.80
2018-09-24T22:30:42.366Z,87.60
2018-09-24T22:33:15.848Z,88.00
2018-09-24T22:35:49.311Z,88.00
2018-09-24T22:38:22.974Z,88.30
2018-09-24T22:40:56.460Z,88.50
2018-09-24T22:43:30.162Z,88.20
2018-09-24T22:46:03.842Z,88.60
2018-09-24T22:48:37.285Z,88.40
2018-09-24T22:51:10.921Z,88.90
2018-09-24T22:53:44.455Z,88.80
2018-09-24T22:56:17.950Z,89.00
2018-09-24T22:58:51.632Z,89.50
2018-09-24T23:01:25.310Z,89.80
2018-09-24T23:03:59.026Z,90.20
2018-09-24T23:06:32.661Z,90.00
2018-09-24T23:09:06.213Z,90.10
2018-09-24T23:11:39.727Z,90.20
2018-09-24T23:14:13.347Z,90.20
2018-09-24T23:16:46.785Z,90.40
2018-09-24T23:19:20.454Z,90.50
2018-09-24T23:21:54.149Z,90.60
2018-09-24T23:24:27.678Z,90.70
2018-09-24T23:27:01.250Z,90.80
2018-09-24T23:29:34.882Z,90.80
2018-09-24T23:32:08.410Z,91.00
2018-09-24T23:34:41.877Z,90.90
2018-09-24T23:37:15.590Z,90.90
2018-09-24T23:39:49.286Z,91.00
2018-09-24T23:42:22.883Z,91.10
2018-09-24T23:44:56.355Z,91.10
2018-09-24T23:47:29.917Z,91.30
2018-09-24T23:50:03.470Z,91.30
2018-09-24T23:52:36.926Z,91.40
2018-09-24T23:55:10.243Z,91.30
2018-09-24T23:57:43.861Z,91.10
